Cold Brook, New York
Current Conditions -  °F | °C
As of 2:53 AM on Wednesday 22 Oct 2014 (Local Time) from KRME Reporting Station
Overcast Overcast  
Wind Chill: 45°   Ceiling: 11000
Heat Index: 47°   Visibility: 10mi
Dew Point: 44°   Wind: 5mph
Humidity: 90%   Direction: 20°NNE
Pressure: 30.04"   Gusts: NA
Location:  43.24°N, 75.04°W
Report Text: KRME 220653Z AUTO 02004KT 10SM SCT050 OVC110 08/07 A3004 RMK AO2 SLP173 T00830067
Loading
Personal Weather Stations






























Interactive Weather Map
Tropical Storm Tracking
New forecast layout! Learn more

10-Day Weather Forecast

Advertisements
Track Severe Weather on mobile